Time;durP1;ratioP1;P1;durP2;ratioP2;P2;SDS_P1;SDS_P2;PMS_P1;PMS_P2;Temp;Humidity;BMP_temperature;BMP_pressure;BME280_temperature;BME280_humidity;BME280_pressure;Samples;Min_cycle;Max_cycle;Signal;HPM_P1;HPM_P2
2020/12/17 00:04:23;;;;;;;5.43;3.80;;;;;10.10;100778.00;;;;10456322;28;20817;-79
2020/12/17 00:09:25;;;;;;;8.07;3.90;;;;;10.10;100775.00;;;;10469276;28;20197;-79
2020/12/17 00:14:26;;;;;;;5.07;3.83;;;;;10.10;100788.00;;;;10436962;28;20218;-79
2020/12/17 00:19:27;;;;;;;4.47;3.53;;;;;10.10;100777.00;;;;10444961;28;20197;-77
2020/12/17 00:24:29;;;;;;;6.57;3.50;;;;;10.10;100785.00;;;;10428509;28;20202;-78
2020/12/17 00:29:30;;;;;;;5.67;4.57;;;;;10.00;100783.00;;;;10430658;28;20213;-78
2020/12/17 00:34:31;;;;;;;5.93;4.67;;;;;10.00;100777.00;;;;10443242;28;20240;-78
2020/12/17 00:39:33;;;;;;;5.53;3.80;;;;;10.00;100779.00;;;;10410579;28;20190;-78
2020/12/17 00:44:34;;;;;;;5.83;3.97;;;;;9.90;100799.00;;;;10481129;28;20226;-78
2020/12/17 00:49:36;;;;;;;5.77;4.07;;;;;9.90;100774.00;;;;10433819;28;20201;-78
2020/12/17 00:54:38;;;;;;;6.43;3.77;;;;;9.80;100776.00;;;;10449568;28;21072;-78
2020/12/17 00:59:40;;;;;;;6.77;4.30;;;;;9.80;100771.00;;;;10464693;28;20676;-78
2020/12/17 01:04:41;;;;;;;6.27;4.33;;;;;9.70;100770.00;;;;10483884;28;20610;-78
2020/12/17 01:09:42;;;;;;;7.73;4.33;;;;;9.70;100767.00;;;;10490281;28;20197;-78
2020/12/17 01:14:44;;;;;;;6.07;4.40;;;;;9.70;100770.00;;;;10490372;28;20521;-78
2020/12/17 01:19:45;;;;;;;7.00;4.17;;;;;9.70;100771.00;;;;10472716;28;20247;-78
2020/12/17 01:24:46;;;;;;;4.67;4.27;;;;;9.70;100772.00;;;;10504050;28;20197;-78
2020/12/17 01:29:48;;;;;;;6.40;4.80;;;;;9.70;100769.00;;;;10489175;28;20216;-78
2020/12/17 01:34:49;;;;;;;6.80;4.73;;;;;9.70;100778.00;;;;10489687;28;20224;-78
2020/12/17 01:39:56;;;;;;;7.13;4.30;;;;;9.70;100783.00;;;;10482855;28;20207;-77
2020/12/17 01:44:58;;;;;;;5.63;4.13;;;;;9.70;100791.00;;;;10467456;28;20225;-78
2020/12/17 01:50:03;;;;;;;8.17;5.07;;;;;9.80;100792.00;;;;10483172;28;20193;-77
2020/12/17 01:55:04;;;;;;;8.30;5.67;;;;;9.80;100788.00;;;;10439467;28;20749;-79
2020/12/17 02:00:07;;;;;;;8.57;5.70;;;;;9.80;100788.00;;;;10457766;28;20560;-78
2020/12/17 02:05:08;;;;;;;7.40;5.10;;;;;9.80;100797.00;;;;10450530;28;20228;-77
2020/12/17 02:10:14;;;;;;;8.53;5.90;;;;;9.70;100794.00;;;;10450438;28;20201;-79
2020/12/17 02:15:17;;;;;;;7.60;5.47;;;;;9.70;100789.00;;;;10438123;28;20326;-78
2020/12/17 02:20:19;;;;;;;7.23;5.00;;;;;9.70;100795.00;;;;10440759;28;20202;-77
2020/12/17 02:25:21;;;;;;;11.03;5.93;;;;;9.70;100800.00;;;;10476957;28;20198;-78
2020/12/17 02:30:23;;;;;;;8.90;6.10;;;;;9.70;100799.00;;;;10446867;28;20199;-77
2020/12/17 02:35:24;;;;;;;8.23;5.83;;;;;9.60;100804.00;;;;10450999;28;20270;-77
2020/12/17 02:40:32;;;;;;;8.03;5.97;;;;;9.60;100799.00;;;;10440658;28;20284;-77
2020/12/17 02:45:33;;;;;;;8.13;6.47;;;;;9.60;100806.00;;;;10446034;28;20226;-78
2020/12/17 02:50:34;;;;;;;9.40;5.83;;;;;9.60;100817.00;;;;10446856;28;20225;-77
2020/12/17 02:55:36;;;;;;;12.37;5.30;;;;;9.60;100820.00;;;;10458439;28;20267;-78
2020/12/17 03:00:38;;;;;;;8.90;5.70;;;;;9.60;100827.00;;;;10439282;28;20196;-79
2020/12/17 03:05:39;;;;;;;8.30;5.10;;;;;9.60;100829.00;;;;10450420;28;20216;-77
2020/12/17 03:10:50;;;;;;;6.20;5.03;;;;;9.60;100824.00;;;;10453841;28;20193;-78
2020/12/17 03:15:52;;;;;;;6.37;5.50;;;;;9.70;100834.00;;;;10415974;28;20230;-79
2020/12/17 03:20:54;;;;;;;11.40;5.90;;;;;9.60;100837.00;;;;10453415;28;20197;-79
2020/12/17 03:25:55;;;;;;;9.23;5.07;;;;;9.60;100854.00;;;;10442319;28;20209;-79
2020/12/17 03:30:57;;;;;;;7.03;5.53;;;;;9.60;100857.00;;;;10444265;28;20556;-80
2020/12/17 03:35:58;;;;;;;7.07;4.93;;;;;9.60;100861.00;;;;10431330;28;20222;-79
2020/12/17 03:41:14;;;;;;;10.67;6.17;;;;;9.60;100866.00;;;;10420447;28;20228;-79
2020/12/17 03:46:16;;;;;;;8.00;5.70;;;;;9.60;100885.00;;;;10487446;28;20229;-78
2020/12/17 03:51:17;;;;;;;6.70;5.47;;;;;9.50;100888.00;;;;10492966;28;20201;-78
2020/12/17 03:56:19;;;;;;;7.87;6.97;;;;;9.50;100899.00;;;;10497261;28;20244;-78
2020/12/17 04:01:20;;;;;;;9.37;7.23;;;;;9.50;100903.00;;;;10498839;28;20221;-78
2020/12/17 04:06:21;;;;;;;9.10;6.83;;;;;9.40;100908.00;;;;10491677;28;20655;-78
2020/12/17 04:11:32;;;;;;;9.30;6.90;;;;;9.40;100915.00;;;;10509154;28;20197;-78
2020/12/17 04:16:33;;;;;;;8.93;6.93;;;;;9.30;100917.00;;;;10438219;28;20229;-78
2020/12/17 04:21:35;;;;;;;8.40;6.13;;;;;9.30;100916.00;;;;10411639;28;20194;-78
2020/12/17 04:26:36;;;;;;;7.20;6.20;;;;;9.20;100908.00;;;;10438733;28;20225;-77
2020/12/17 04:31:37;;;;;;;8.57;6.23;;;;;9.20;100914.00;;;;10442722;28;20273;-78
2020/12/17 04:36:39;;;;;;;8.43;6.37;;;;;9.20;100910.00;;;;10428267;28;20229;-77
2020/12/17 04:41:52;;;;;;;8.40;6.17;;;;;9.20;100911.00;;;;10432791;28;20552;-77
2020/12/17 04:47:03;;;;;;;8.37;5.10;;;;;9.20;100913.00;;;;10448936;28;20916;-78
2020/12/17 04:52:07;;;;;;;7.33;5.17;;;;;9.10;100930.00;;;;10426185;28;20208;-78
2020/12/17 04:57:11;;;;;;;7.23;5.00;;;;;9.10;100931.00;;;;10425719;28;20242;-77
2020/12/17 05:02:14;;;;;;;7.63;4.90;;;;;9.10;100952.00;;;;10452519;28;20186;-77
2020/12/17 05:07:17;;;;;;;4.77;4.03;;;;;9.10;100957.00;;;;10447255;28;20201;-78
2020/12/17 05:12:19;;;;;;;6.10;3.90;;;;;9.00;100959.00;;;;10466160;28;20193;-77
2020/12/17 05:17:21;;;;;;;5.27;3.90;;;;;9.00;100976.00;;;;10488566;28;20255;-78
2020/12/17 05:22:23;;;;;;;5.30;3.80;;;;;8.90;100975.00;;;;10496791;28;20196;-77
2020/12/17 05:27:26;;;;;;;4.27;3.00;;;;;8.90;100982.00;;;;10498228;28;20201;-78
2020/12/17 05:32:27;;;;;;;3.97;3.10;;;;;8.80;100985.00;;;;10506145;28;20200;-77
2020/12/17 05:37:31;;;;;;;6.20;3.20;;;;;8.80;100983.00;;;;10491745;28;20220;-77
2020/12/17 05:42:33;;;;;;;3.03;2.53;;;;;8.70;100990.00;;;;10468169;28;20217;-78
2020/12/17 05:47:34;;;;;;;4.40;2.50;;;;;8.70;100999.00;;;;10471369;28;20193;-77
2020/12/17 05:52:37;;;;;;;2.63;2.17;;;;;8.70;101003.00;;;;10441167;28;20205;-77
2020/12/17 05:57:51;;;;;;;3.43;2.30;;;;;8.70;101007.00;;;;10426134;28;20237;-78
2020/12/17 06:02:52;;;;;;;8.03;2.23;;;;;8.70;101017.00;;;;10491841;28;20831;-78
2020/12/17 06:07:59;;;;;;;3.97;1.90;;;;;8.60;101026.00;;;;10503924;28;20192;-78
2020/12/17 06:13:02;;;;;;;3.20;1.70;;;;;8.70;101030.00;;;;10482227;28;20212;-78
2020/12/17 06:18:04;;;;;;;3.90;2.30;;;;;8.60;101037.00;;;;10450540;28;20652;-77
2020/12/17 06:23:06;;;;;;;3.30;1.83;;;;;8.60;101042.00;;;;10471077;28;20197;-78
2020/12/17 06:28:35;;;;;;;5.13;2.20;;;;;8.60;101054.00;;;;10466016;28;20204;-77
2020/12/17 06:33:37;;;;;;;5.53;2.67;;;;;8.60;101067.00;;;;10455677;28;20554;-78
2020/12/17 06:38:40;;;;;;;7.10;3.70;;;;;8.60;101075.00;;;;10454899;28;20194;-77
2020/12/17 06:46:37;;;;;;;8.17;4.07;;;;;8.60;101078.00;;;;10561841;27;20588;-77
2020/12/17 06:51:42;;;;;;;6.37;4.13;;;;;8.60;101084.00;;;;10541650;27;20257;-78
2020/12/17 06:57:24;;;;;;;5.80;3.73;;;;;8.70;101085.00;;;;10559412;27;20857;-77
2020/12/17 07:02:39;;;;;;;6.93;3.97;;;;;8.50;101085.00;;;;10523177;28;20285;-78
2020/12/17 07:07:44;;;;;;;6.53;3.70;;;;;8.50;101099.00;;;;10540324;28;20195;-79
2020/12/17 07:12:47;;;;;;;6.97;3.83;;;;;8.60;101115.00;;;;10554530;28;20649;-78
2020/12/17 07:17:49;;;;;;;8.57;4.60;;;;;8.70;101119.00;;;;10541788;28;20192;-79
2020/12/17 07:22:51;;;;;;;9.17;4.93;;;;;8.80;101137.00;;;;10542267;27;20301;-78
2020/12/17 07:27:52;;;;;;;8.03;5.10;;;;;8.90;101142.00;;;;10526648;28;20203;-78
2020/12/17 07:32:53;;;;;;;10.37;5.40;;;;;8.90;101151.00;;;;10507308;28;20257;-78
2020/12/17 07:37:59;;;;;;;11.63;5.30;;;;;8.90;101153.00;;;;10518056;27;753338;-77
2020/12/17 07:43:21;;;;;;;9.20;5.30;;;;;9.00;101168.00;;;;10471253;28;20217;-77
2020/12/17 07:48:51;;;;;;;11.77;5.67;;;;;8.90;101157.00;;;;10455082;28;20199;-78
2020/12/17 07:53:53;;;;;;;14.13;6.00;;;;;8.90;101172.00;;;;10441395;28;20577;-78
2020/12/17 07:58:54;;;;;;;12.70;5.80;;;;;8.80;101181.00;;;;10418133;28;20235;-77
2020/12/17 08:03:56;;;;;;;9.93;5.70;;;;;8.80;101190.00;;;;10418520;28;20241;-78
2020/12/17 08:09:00;;;;;;;10.17;5.47;;;;;8.70;101189.00;;;;10459804;28;20205;-78
2020/12/17 08:14:10;;;;;;;13.67;6.33;;;;;8.80;101196.00;;;;10471903;28;20190;-78
2020/12/17 08:19:13;;;;;;;10.13;5.30;;;;;9.10;101204.00;;;;10443685;28;20189;-77
2020/12/17 08:24:15;;;;;;;13.57;5.90;;;;;9.20;101205.00;;;;10470159;28;20684;-79
2020/12/17 08:29:17;;;;;;;11.23;5.73;;;;;9.30;101209.00;;;;10470666;28;20194;-79
2020/12/17 08:34:18;;;;;;;13.90;6.03;;;;;9.40;101214.00;;;;10447060;28;20189;-79
2020/12/17 08:39:21;;;;;;;15.00;6.07;;;;;9.70;101228.00;;;;10465486;28;20205;-80
2020/12/17 08:44:28;;;;;;;9.40;5.50;;;;;9.80;101238.00;;;;10424137;28;20557;-79
2020/12/17 08:49:29;;;;;;;11.77;6.07;;;;;9.90;101244.00;;;;10470747;28;20189;-80
2020/12/17 08:54:34;;;;;;;11.47;5.80;;;;;10.20;101248.00;;;;10453921;28;20591;-80
2020/12/17 08:59:36;;;;;;;10.63;5.13;;;;;10.20;101261.00;;;;10470036;28;20204;-79
2020/12/17 09:04:38;;;;;;;14.63;6.70;;;;;10.20;101256.00;;;;10469931;28;20707;-80
2020/12/17 09:09:39;;;;;;;9.13;5.30;;;;;10.30;101278.00;;;;10412707;28;20596;-79
2020/12/17 09:14:42;;;;;;;9.20;5.10;;;;;10.30;101277.00;;;;10444136;28;20639;-78
2020/12/17 09:19:49;;;;;;;9.63;4.63;;;;;10.20;101293.00;;;;10444858;28;20714;-79
2020/12/17 09:24:54;;;;;;;6.60;4.13;;;;;10.20;101293.00;;;;10470039;28;20267;-79
2020/12/17 09:29:59;;;;;;;8.73;4.80;;;;;10.40;101297.00;;;;10436383;28;20220;-79
2020/12/17 09:35:05;;;;;;;10.43;3.80;;;;;10.70;101303.00;;;;10471135;28;20193;-79
2020/12/17 09:40:10;;;;;;;10.97;4.37;;;;;11.00;101292.00;;;;10485555;28;20205;-78
2020/12/17 09:45:15;;;;;;;8.10;3.43;;;;;11.30;101305.00;;;;10444455;28;20214;-79
2020/12/17 09:50:17;;;;;;;7.13;3.40;;;;;11.30;101317.00;;;;10479668;28;20251;-80
2020/12/17 09:55:19;;;;;;;8.63;2.90;;;;;11.20;101327.00;;;;10455380;28;20193;-80
2020/12/17 10:00:20;;;;;;;7.27;2.90;;;;;11.20;101322.00;;;;10499979;28;20865;-80
2020/12/17 10:05:21;;;;;;;5.23;2.77;;;;;11.50;101328.00;;;;10455185;28;20319;-81
2020/12/17 10:10:23;;;;;;;6.93;2.90;;;;;11.60;101337.00;;;;10473597;28;20555;-78
2020/12/17 10:15:25;;;;;;;5.83;2.90;;;;;11.80;101348.00;;;;10467104;28;20197;-80
2020/12/17 10:20:27;;;;;;;9.23;3.00;;;;;11.70;101351.00;;;;10466470;28;20193;-80
2020/12/17 10:25:28;;;;;;;6.53;2.83;;;;;11.80;101360.00;;;;10467632;28;20209;-80
2020/12/17 10:30:30;;;;;;;8.27;2.97;;;;;12.10;101361.00;;;;10478494;28;20189;-80
2020/12/17 10:35:31;;;;;;;6.90;2.80;;;;;11.70;101359.00;;;;10477277;28;20189;-80
2020/12/17 10:40:32;;;;;;;8.87;3.07;;;;;12.20;101366.00;;;;10433441;28;20255;-79
2020/12/17 10:45:34;;;;;;;7.23;3.07;;;;;12.50;101371.00;;;;10449825;28;20259;-79
2020/12/17 10:50:36;;;;;;;5.80;2.30;;;;;12.70;101376.00;;;;10467282;28;20211;-80
2020/12/17 10:55:37;;;;;;;7.80;2.83;;;;;12.90;101384.00;;;;10452778;28;20200;-80
2020/12/17 11:00:39;;;;;;;10.23;3.67;;;;;12.70;101379.00;;;;10450638;28;20189;-80
2020/12/17 11:05:40;;;;;;;5.80;2.20;;;;;13.10;101389.00;;;;10435283;28;20564;-81
2020/12/17 11:10:42;;;;;;;5.53;2.33;;;;;13.20;101383.00;;;;10489750;28;20210;-80
2020/12/17 11:15:51;;;;;;;6.03;1.97;;;;;13.30;101391.00;;;;10460409;28;20664;-80
2020/12/17 11:20:52;;;;;;;6.87;2.30;;;;;12.90;101395.00;;;;10483920;28;20197;-80
2020/12/17 11:25:53;;;;;;;8.20;2.27;;;;;13.30;101396.00;;;;10450954;28;20213;-80
2020/12/17 11:30:55;;;;;;;10.37;2.13;;;;;13.50;101400.00;;;;10453027;28;20197;-80
2020/12/17 11:35:56;;;;;;;8.23;2.23;;;;;13.20;101410.00;;;;10456723;28;20247;-79
2020/12/17 11:40:58;;;;;;;7.03;2.00;;;;;12.20;101408.00;;;;10471162;28;20185;-80
2020/12/17 11:46:07;;;;;;;6.93;2.47;;;;;11.70;101394.00;;;;10443621;28;20221;-79
2020/12/17 11:51:08;;;;;;;6.27;2.37;;;;;11.80;101405.00;;;;10448275;28;20607;-80
2020/12/17 11:56:16;;;;;;;4.40;1.83;;;;;11.80;101394.00;;;;10473573;28;20243;-80
2020/12/17 12:01:17;;;;;;;5.43;2.13;;;;;11.90;101407.00;;;;10472107;28;20202;-80
2020/12/17 12:06:18;;;;;;;9.13;2.53;;;;;12.10;101409.00;;;;10472908;28;20229;-79
2020/12/17 12:11:20;;;;;;;4.33;1.90;;;;;12.90;101407.00;;;;10474520;28;20209;-78
2020/12/17 12:16:26;;;;;;;5.83;2.07;;;;;13.20;101401.00;;;;10456794;28;20259;-80
2020/12/17 12:21:27;;;;;;;9.47;2.37;;;;;13.40;101402.00;;;;10458702;28;20197;-80
2020/12/17 12:26:28;;;;;;;13.17;2.53;;;;;13.60;101404.00;;;;10457334;28;20259;-80
2020/12/17 12:31:30;;;;;;;4.43;1.90;;;;;13.60;101415.00;;;;10474817;28;20190;-80
2020/12/17 12:36:32;;;;;;;6.57;2.33;;;;;13.40;101415.00;;;;10458348;28;20252;-81
2020/12/17 12:41:33;;;;;;;6.67;1.53;;;;;12.20;101416.00;;;;10474719;28;20189;-81
2020/12/17 12:46:41;;;;;;;6.97;1.60;;;;;11.80;101411.00;;;;10475672;28;20225;-81
2020/12/17 12:51:43;;;;;;;3.13;1.50;;;;;11.70;101425.00;;;;10475684;28;20202;-81
2020/12/17 12:56:45;;;;;;;6.93;2.40;;;;;11.80;101437.00;;;;10444013;28;20849;-81
2020/12/17 13:01:47;;;;;;;5.07;1.67;;;;;11.80;101437.00;;;;10444453;28;20224;-81
2020/12/17 13:06:50;;;;;;;6.70;1.50;;;;;11.80;101439.00;;;;10418514;28;20228;-81
2020/12/17 13:11:57;;;;;;;6.17;2.13;;;;;11.60;101433.00;;;;10451428;28;20864;-81
2020/12/17 13:17:04;;;;;;;2.97;1.40;;;;;11.60;101449.00;;;;10447503;28;20232;-81
2020/12/17 13:22:06;;;;;;;8.87;2.60;;;;;11.50;101444.00;;;;10443634;28;20707;-81
2020/12/17 13:27:07;;;;;;;9.40;2.30;;;;;11.50;101458.00;;;;10414092;28;79182;-81
2020/12/17 13:32:08;;;;;;;8.33;2.10;;;;;11.50;101448.00;;;;10369755;28;20937;-83
2020/12/17 13:37:10;;;;;;;9.43;2.60;;;;;11.40;101465.00;;;;10367799;28;20203;-81
2020/12/17 13:42:11;;;;;;;7.13;2.50;;;;;11.40;101464.00;;;;10352906;28;20215;-80
2020/12/17 13:47:18;;;;;;;9.03;2.70;;;;;11.40;101472.00;;;;10362979;28;20214;-82
2020/12/17 13:52:20;;;;;;;6.53;2.70;;;;;11.40;101475.00;;;;10352773;28;20196;-80
2020/12/17 13:57:21;;;;;;;10.37;3.13;;;;;11.40;101482.00;;;;10352987;28;20658;-81
2020/12/17 14:02:23;;;;;;;6.00;2.50;;;;;11.40;101480.00;;;;10357854;28;20266;-80
2020/12/17 14:07:24;;;;;;;7.90;2.80;;;;;11.20;101486.00;;;;10340368;28;20712;-81
2020/12/17 14:12:25;;;;;;;10.20;2.83;;;;;11.20;101491.00;;;;10308657;28;20192;-81
2020/12/17 14:17:34;;;;;;;10.90;2.17;;;;;11.20;101503.00;;;;10340139;28;20199;-80
2020/12/17 14:22:36;;;;;;;6.83;2.47;;;;;11.10;101497.00;;;;10333640;28;20211;-80
2020/12/17 14:27:37;;;;;;;9.50;2.83;;;;;10.90;101503.00;;;;10348407;28;20294;-80
2020/12/17 14:32:39;;;;;;;6.00;2.20;;;;;11.00;101495.00;;;;10348709;28;20595;-80
2020/12/17 14:37:41;;;;;;;6.73;2.20;;;;;10.90;101501.00;;;;10365984;28;20218;-81
2020/12/17 14:42:42;;;;;;;6.33;2.00;;;;;10.90;101521.00;;;;10364028;28;20666;-81
2020/12/17 14:47:55;;;;;;;6.30;2.20;;;;;10.80;101527.00;;;;10324105;28;20656;-81
2020/12/17 14:52:56;;;;;;;8.23;2.50;;;;;10.80;101526.00;;;;10328167;28;20202;-80
2020/12/17 14:57:57;;;;;;;4.93;1.87;;;;;10.80;101528.00;;;;10349280;28;20195;-80
2020/12/17 15:02:59;;;;;;;8.30;1.97;;;;;10.60;101541.00;;;;10359443;28;20208;-81
2020/12/17 15:08:01;;;;;;;8.73;2.40;;;;;10.50;101552.00;;;;10366561;28;20202;-80
2020/12/17 15:13:02;;;;;;;5.33;2.13;;;;;10.50;101562.00;;;;10375994;28;20195;-81
2020/12/17 15:18:11;;;;;;;8.30;2.10;;;;;10.40;101560.00;;;;10374523;28;20689;-82
2020/12/17 15:23:13;;;;;;;8.47;2.57;;;;;10.40;101567.00;;;;10372817;28;20203;-81
2020/12/17 15:28:15;;;;;;;7.40;2.63;;;;;10.30;101556.00;;;;10373502;28;20683;-81
2020/12/17 15:33:16;;;;;;;7.80;2.47;;;;;10.20;101553.00;;;;10389763;28;20300;-80
2020/12/17 15:38:17;;;;;;;5.93;2.27;;;;;9.90;101573.00;;;;10355279;28;20257;-81
2020/12/17 15:43:20;;;;;;;6.90;2.40;;;;;9.70;101567.00;;;;10357943;28;20227;-80
2020/12/17 15:48:35;;;;;;;4.93;2.47;;;;;9.50;101567.00;;;;10347006;28;20200;-81
2020/12/17 15:53:38;;;;;;;5.30;2.30;;;;;9.40;101567.00;;;;10330181;28;20603;-80
2020/12/17 15:58:41;;;;;;;7.20;1.97;;;;;9.50;101574.00;;;;10346053;28;20192;-80
2020/12/17 16:03:43;;;;;;;7.93;2.50;;;;;9.60;101574.00;;;;10359639;28;20287;-81
2020/12/17 16:08:46;;;;;;;9.67;3.00;;;;;9.70;101578.00;;;;10370603;28;20202;-81
2020/12/17 16:13:48;;;;;;;9.97;3.27;;;;;9.70;101587.00;;;;10310453;28;20201;-81
2020/12/17 16:18:53;;;;;;;4.50;2.70;;;;;9.70;101589.00;;;;10351381;28;20714;-80
2020/12/17 16:23:54;;;;;;;9.27;2.40;;;;;9.70;101597.00;;;;10277452;28;20223;-81
2020/12/17 16:28:56;;;;;;;8.90;2.47;;;;;9.70;101600.00;;;;10282312;28;20227;-80
2020/12/17 16:33:57;;;;;;;11.60;2.77;;;;;9.70;101600.00;;;;10331126;28;20200;-81
2020/12/17 16:38:59;;;;;;;10.63;2.87;;;;;9.70;101600.00;;;;10371991;28;20659;-80
2020/12/17 16:44:02;;;;;;;7.17;3.13;;;;;9.70;101587.00;;;;10360981;28;20235;-81
2020/12/17 16:49:07;;;;;;;9.90;3.70;;;;;9.70;101594.00;;;;10386308;28;20282;-81
2020/12/17 16:54:08;;;;;;;13.90;3.43;;;;;9.70;101599.00;;;;10371970;28;20197;-80
2020/12/17 16:59:12;;;;;;;8.10;3.53;;;;;9.60;101606.00;;;;10325867;28;20202;-81
2020/12/17 17:04:13;;;;;;;10.30;3.50;;;;;9.60;101600.00;;;;10356840;28;20211;-81
2020/12/17 17:09:15;;;;;;;12.27;3.40;;;;;9.50;101614.00;;;;10347214;28;20199;-80
2020/12/17 17:14:17;;;;;;;11.63;3.63;;;;;9.30;101620.00;;;;10345819;28;20196;-80
2020/12/17 17:19:25;;;;;;;8.33;3.63;;;;;9.20;101626.00;;;;10348095;28;20658;-81
2020/12/17 17:24:26;;;;;;;10.00;3.80;;;;;9.20;101632.00;;;;10327585;28;20226;-81
2020/12/17 17:29:28;;;;;;;11.47;2.83;;;;;9.30;101638.00;;;;10366403;28;20195;-80
2020/12/17 17:34:30;;;;;;;10.63;3.53;;;;;9.30;101641.00;;;;10344468;28;20198;-81
2020/12/17 17:39:31;;;;;;;9.13;3.70;;;;;9.30;101644.00;;;;10344051;28;20236;-80
2020/12/17 17:44:32;;;;;;;8.40;2.97;;;;;9.30;101646.00;;;;10342499;28;20311;-80
2020/12/17 17:49:41;;;;;;;8.03;2.97;;;;;9.30;101647.00;;;;10328544;28;20266;-81
2020/12/17 17:54:43;;;;;;;8.90;3.00;;;;;9.20;101648.00;;;;10342576;28;20195;-80
2020/12/17 17:59:44;;;;;;;6.93;3.37;;;;;8.90;101645.00;;;;10341830;28;20191;-81
2020/12/17 18:04:46;;;;;;;10.27;3.67;;;;;8.80;101641.00;;;;10358990;28;20200;-80
2020/12/17 18:09:47;;;;;;;12.57;4.23;;;;;8.70;101639.00;;;;10343160;28;20904;-81
2020/12/17 18:14:48;;;;;;;10.80;4.53;;;;;8.70;101633.00;;;;10341845;28;20237;-80
2020/12/17 18:19:57;;;;;;;9.63;4.43;;;;;8.60;101638.00;;;;10357908;28;20195;-80
2020/12/17 18:24:59;;;;;;;15.03;5.03;;;;;8.40;101641.00;;;;10358024;28;20215;-80
2020/12/17 18:30:01;;;;;;;10.97;4.93;;;;;8.20;101647.00;;;;10358572;28;20199;-80
2020/12/17 18:35:04;;;;;;;8.33;3.80;;;;;8.20;101644.00;;;;10343193;28;20187;-80
2020/12/17 18:40:06;;;;;;;8.30;4.27;;;;;8.20;101655.00;;;;10342515;28;20211;-81
2020/12/17 18:45:07;;;;;;;9.67;4.17;;;;;8.00;101661.00;;;;10336478;28;20218;-80
2020/12/17 18:50:13;;;;;;;9.10;4.60;;;;;7.90;101670.00;;;;10367325;28;20219;-79
2020/12/17 18:55:15;;;;;;;13.57;4.50;;;;;7.80;101665.00;;;;10341456;28;20256;-80
2020/12/17 19:00:16;;;;;;;13.57;4.90;;;;;7.70;101667.00;;;;10340256;28;20563;-80
2020/12/17 19:05:18;;;;;;;12.83;4.80;;;;;7.70;101667.00;;;;10330198;28;20883;-80
2020/12/17 19:10:23;;;;;;;9.97;5.33;;;;;7.70;101670.00;;;;10334293;28;20184;-80
2020/12/17 19:15:25;;;;;;;16.77;6.23;;;;;7.70;101671.00;;;;10341424;28;20195;-80
2020/12/17 19:20:32;;;;;;;10.90;5.70;;;;;7.70;101672.00;;;;10357676;28;20559;-80
2020/12/17 19:25:34;;;;;;;10.47;6.17;;;;;7.60;101671.00;;;;10357359;28;20226;-81
2020/12/17 19:30:35;;;;;;;13.13;6.47;;;;;7.60;101670.00;;;;10357955;28;20591;-80
2020/12/17 19:35:36;;;;;;;19.23;7.33;;;;;7.60;101673.00;;;;10357567;28;20191;-80
2020/12/17 19:40:38;;;;;;;14.13;7.20;;;;;7.60;101677.00;;;;10341950;28;20720;-82
2020/12/17 19:45:40;;;;;;;14.10;8.10;;;;;7.60;101682.00;;;;10341434;28;20221;-80
2020/12/17 19:50:46;;;;;;;11.17;6.63;;;;;7.60;101680.00;;;;10344718;28;20195;-81
2020/12/17 19:55:48;;;;;;;14.80;7.37;;;;;7.60;101676.00;;;;10349623;28;20188;-81
2020/12/17 20:00:50;;;;;;;11.53;7.27;;;;;7.70;101677.00;;;;10346656;28;20191;-80
2020/12/17 20:05:54;;;;;;;16.87;7.77;;;;;7.70;101689.00;;;;10349152;28;20626;-80
2020/12/17 20:10:56;;;;;;;12.73;7.53;;;;;7.60;101690.00;;;;10347975;28;20196;-81
2020/12/17 20:15:58;;;;;;;17.57;9.10;;;;;7.60;101691.00;;;;10348358;28;20659;-81
2020/12/17 20:21:02;;;;;;;12.70;8.67;;;;;7.50;101700.00;;;;10348223;28;20195;-80
2020/12/17 20:26:04;;;;;;;20.50;10.60;;;;;7.20;101706.00;;;;10347269;28;20254;-80
2020/12/17 20:31:09;;;;;;;19.27;11.07;;;;;7.10;101710.00;;;;10363528;28;20227;-80
2020/12/17 20:36:30;;;;;;;11.80;9.37;;;;;6.90;101717.00;;;;10363065;28;20187;-81
2020/12/17 20:41:32;;;;;;;15.40;9.07;;;;;6.90;101702.00;;;;10347563;28;20265;-80
2020/12/17 20:46:34;;;;;;;17.60;9.20;;;;;6.80;101703.00;;;;10339104;28;20223;-81
2020/12/17 20:51:36;;;;;;;22.93;10.27;;;;;6.90;101707.00;;;;10338914;28;20238;-79
2020/12/17 20:56:37;;;;;;;21.90;10.63;;;;;6.90;101698.00;;;;10337806;28;20652;-80
2020/12/17 21:01:38;;;;;;;19.73;10.53;;;;;6.90;101694.00;;;;10366843;28;20261;-80
2020/12/17 21:06:40;;;;;;;17.93;10.60;;;;;6.90;101697.00;;;;10345092;28;20211;-81
2020/12/17 21:11:41;;;;;;;22.47;11.17;;;;;6.90;101702.00;;;;10361526;28;20191;-80
2020/12/17 21:16:43;;;;;;;20.40;11.43;;;;;6.80;101701.00;;;;10337297;28;20632;-80
2020/12/17 21:21:44;;;;;;;15.67;9.70;;;;;6.70;101698.00;;;;10320486;28;20196;-80
2020/12/17 21:26:45;;;;;;;15.20;9.33;;;;;6.80;101703.00;;;;10349411;28;20207;-80
2020/12/17 21:31:53;;;;;;;15.10;8.77;;;;;6.70;101699.00;;;;10360724;28;20714;-79
2020/12/17 21:36:55;;;;;;;16.60;8.57;;;;;6.80;101686.00;;;;10343254;28;20206;-79
2020/12/17 21:41:56;;;;;;;16.40;8.83;;;;;6.70;101676.00;;;;10344069;28;20196;-80
2020/12/17 21:46:58;;;;;;;13.33;7.50;;;;;6.70;101678.00;;;;10344209;28;20234;-81
2020/12/17 21:51:59;;;;;;;16.90;8.30;;;;;6.80;101674.00;;;;10344663;28;20191;-81
2020/12/17 21:57:01;;;;;;;11.80;7.43;;;;;6.80;101683.00;;;;10343125;28;20206;-80
2020/12/17 22:02:05;;;;;;;15.40;6.90;;;;;6.80;101685.00;;;;10343188;28;20203;-81
2020/12/17 22:07:07;;;;;;;15.70;7.67;;;;;6.80;101678.00;;;;10376446;28;20211;-80
2020/12/17 22:12:08;;;;;;;21.43;7.63;;;;;6.80;101685.00;;;;10326617;28;20195;-80
2020/12/17 22:17:10;;;;;;;15.73;7.93;;;;;6.80;101678.00;;;;10302561;28;20196;-79
2020/12/17 22:22:19;;;;;;;13.50;7.70;;;;;6.80;101674.00;;;;10347364;28;20228;-82
2020/12/17 22:27:20;;;;;;;18.73;7.67;;;;;6.90;101672.00;;;;10359346;28;20214;-79
2020/12/17 22:32:22;;;;;;;13.03;7.83;;;;;6.80;101671.00;;;;10343028;28;20195;-79
2020/12/17 22:37:23;;;;;;;17.87;7.67;;;;;6.90;101669.00;;;;10326453;28;20196;-79
2020/12/17 22:42:25;;;;;;;19.17;7.57;;;;;6.90;101670.00;;;;10359517;28;20230;-80
2020/12/17 22:47:26;;;;;;;15.63;6.67;;;;;6.90;101672.00;;;;10360886;28;20231;-80
2020/12/17 22:52:33;;;;;;;15.10;6.07;;;;;6.90;101670.00;;;;10345395;28;20196;-80
2020/12/17 22:57:34;;;;;;;12.87;5.97;;;;;6.90;101666.00;;;;10343359;28;20201;-80
2020/12/17 23:02:36;;;;;;;20.77;7.83;;;;;6.90;101666.00;;;;10343173;28;20198;-81
2020/12/17 23:07:37;;;;;;;17.47;7.40;;;;;6.80;101673.00;;;;10344320;28;20687;-80
2020/12/17 23:12:39;;;;;;;14.63;6.53;;;;;6.80;101674.00;;;;10328709;28;20214;-81
2020/12/17 23:17:40;;;;;;;15.47;7.17;;;;;6.90;101668.00;;;;10361485;28;20222;-80
2020/12/17 23:22:47;;;;;;;14.43;6.53;;;;;6.80;101662.00;;;;10345583;28;20196;-80
2020/12/17 23:27:50;;;;;;;12.27;6.40;;;;;6.80;101675.00;;;;10351255;28;20196;-81
2020/12/17 23:32:51;;;;;;;15.40;7.23;;;;;6.70;101667.00;;;;10352862;28;20321;-80
2020/12/17 23:37:53;;;;;;;16.00;7.20;;;;;6.70;101662.00;;;;10351988;28;20253;-80
2020/12/17 23:42:54;;;;;;;17.63;6.87;;;;;6.70;101669.00;;;;10368108;28;20223;-80
2020/12/17 23:47:55;;;;;;;20.13;6.80;;;;;6.70;101663.00;;;;10352586;28;20192;-80
2020/12/17 23:53:05;;;;;;;14.80;7.80;;;;;6.70;101654.00;;;;10336285;28;20191;-79
2020/12/17 23:58:06;;;;;;;11.83;7.50;;;;;6.70;101664.00;;;;10367238;28;20199;-79
